createdAt,value
2019-05-26T00:01:23.733Z,75.59
2019-05-26T00:04:37.445Z,76.10
2019-05-26T00:07:51.272Z,76.95
2019-05-26T00:11:04.764Z,77.13
2019-05-26T00:14:18.268Z,77.34
2019-05-26T00:17:31.807Z,77.47
2019-05-26T00:20:45.397Z,78.52
2019-05-26T00:23:59.007Z,78.10
2019-05-26T00:27:12.497Z,78.02
2019-05-26T00:30:26.110Z,78.29
2019-05-26T00:33:39.603Z,78.80
2019-05-26T00:36:53.454Z,78.94
2019-05-26T00:40:09.174Z,79.11
2019-05-26T00:43:22.879Z,79.23
2019-05-26T00:46:36.527Z,78.67
2019-05-26T00:49:50.117Z,78.45
2019-05-26T00:53:04.225Z,78.26
2019-05-26T00:56:17.852Z,79.12
2019-05-26T00:59:31.552Z,79.51
2019-05-26T01:02:45.470Z,80.61
2019-05-26T01:05:59.352Z,81.03
2019-05-26T01:09:12.941Z,80.83
2019-05-26T01:12:26.432Z,80.96
2019-05-26T01:15:39.938Z,81.35
2019-05-26T01:18:53.440Z,81.58
2019-05-26T01:22:06.957Z,81.58
2019-05-26T01:25:20.868Z,81.62
2019-05-26T01:28:34.357Z,81.67
2019-05-26T01:31:48.373Z,81.89
2019-05-26T01:35:02.083Z,81.20
2019-05-26T01:38:23.890Z,81.00
2019-05-26T01:41:31.892Z,81.25
2019-05-26T01:44:45.384Z,81.58
2019-05-26T01:47:58.888Z,81.90
2019-05-26T01:51:12.643Z,82.42
2019-05-26T01:54:26.280Z,82.83
2019-05-26T01:57:39.707Z,83.07
2019-05-26T02:00:53.486Z,82.96
2019-05-26T02:04:06.970Z,82.76
2019-05-26T02:07:20.457Z,82.50
2019-05-26T02:10:33.952Z,82.86
2019-05-26T02:13:47.520Z,82.66
2019-05-26T02:17:01.453Z,82.84
2019-05-26T02:20:17.010Z,82.62
2019-05-26T02:23:30.488Z,82.18
2019-05-26T02:26:43.996Z,82.37
2019-05-26T02:29:57.474Z,81.98
2019-05-26T02:33:11.068Z,82.90
2019-05-26T02:36:25.091Z,83.20
2019-05-26T02:39:38.572Z,82.46
2019-05-26T02:42:52.258Z,83.37
2019-05-26T02:46:06.129Z,83.20
2019-05-26T02:49:19.624Z,83.31
2019-05-26T02:52:33.108Z,83.41
2019-05-26T02:55:47.076Z,83.30
2019-05-26T02:59:00.660Z,83.12
2019-05-26T03:02:14.554Z,83.37
2019-05-26T03:05:28.472Z,83.46
2019-05-26T03:08:44.242Z,83.57
2019-05-26T03:11:59.413Z,83.86
2019-05-26T03:15:14.801Z,83.55
2019-05-26T03:18:31.166Z,83.04
2019-05-26T03:21:47.635Z,83.22
2019-05-26T03:25:03.409Z,83.54
2019-05-26T03:28:16.920Z,83.33
2019-05-26T03:31:30.720Z,83.42
2019-05-26T03:34:44.244Z,83.43
2019-05-26T03:37:57.716Z,83.36
2019-05-26T03:41:11.209Z,83.53
2019-05-26T03:44:24.705Z,83.65
2019-05-26T03:47:38.620Z,83.93
2019-05-26T03:50:52.105Z,83.97
2019-05-26T03:54:05.794Z,83.65
2019-05-26T03:57:19.281Z,83.94
2019-05-26T04:00:33.178Z,83.57
2019-05-26T04:03:46.690Z,83.64
2019-05-26T04:07:00.162Z,83.38
2019-05-26T04:10:14.140Z,83.02
2019-05-26T04:13:27.933Z,83.04
2019-05-26T04:16:41.423Z,83.08
2019-05-26T04:19:54.922Z,83.14
2019-05-26T04:23:08.416Z,82.92
2019-05-26T04:26:22.001Z,83.20
2019-05-26T04:29:35.795Z,83.17
2019-05-26T04:32:49.406Z,83.40
2019-05-26T04:36:03.298Z,83.42
2019-05-26T04:39:17.143Z,82.83
2019-05-26T04:42:30.616Z,83.28
2019-05-26T04:45:44.126Z,82.91
2019-05-26T04:48:57.618Z,82.51
2019-05-26T04:52:11.232Z,82.20
2019-05-26T04:55:24.732Z,82.09
2019-05-26T04:58:38.323Z,82.20
2019-05-26T05:01:51.807Z,82.30
2019-05-26T05:05:05.644Z,83.12
2019-05-26T05:08:19.169Z,83.53
2019-05-26T05:11:33.294Z,83.39
2019-05-26T05:16:38.347Z,82.52
2019-05-26T05:19:52.060Z,82.67
2019-05-26T05:23:05.793Z,82.15
2019-05-26T05:26:19.701Z,82.46
2019-05-26T05:29:33.573Z,83.48
2019-05-26T05:32:47.341Z,83.58
2019-05-26T05:36:00.933Z,83.16
2019-05-26T05:39:14.536Z,82.83
2019-05-26T05:42:28.277Z,82.56
2019-05-26T05:45:41.875Z,82.68
2019-05-26T05:48:55.618Z,82.86
2019-05-26T05:52:09.200Z,82.67
2019-05-26T05:55:22.681Z,82.77
2019-05-26T05:58:36.166Z,82.57
2019-05-26T06:01:49.802Z,82.68
2019-05-26T06:05:04.100Z,82.21
2019-05-26T06:08:17.753Z,82.31
2019-05-26T06:11:31.406Z,83.03
2019-05-26T06:14:45.839Z,83.91
2019-05-26T06:17:59.674Z,83.53
2019-05-26T06:21:13.188Z,82.59
2019-05-26T06:24:26.780Z,81.49
2019-05-26T06:27:40.281Z,80.18
2019-05-26T06:30:54.246Z,79.08
2019-05-26T06:34:07.779Z,78.27
2019-05-26T06:37:21.427Z,76.61
2019-05-26T06:40:34.956Z,73.66
2019-05-26T06:43:48.722Z,69.82
2019-05-26T06:47:02.337Z,67.49
2019-05-26T06:50:16.315Z,66.04
2019-05-26T06:53:29.834Z,65.13
2019-05-26T06:56:43.319Z,65.56
2019-05-26T06:59:56.827Z,64.94
2019-05-26T07:03:10.304Z,64.40
2019-05-26T07:06:23.926Z,64.73
2019-05-26T07:09:37.401Z,63.48
2019-05-26T07:12:50.896Z,62.95
2019-05-26T07:16:04.434Z,62.84
2019-05-26T07:19:17.921Z,62.75
2019-05-26T07:22:31.433Z,63.73
2019-05-26T07:25:44.930Z,62.09
2019-05-26T07:28:58.404Z,61.18
2019-05-26T07:32:12.194Z,60.63
2019-05-26T07:35:25.921Z,60.45
2019-05-26T07:38:39.834Z,59.83
2019-05-26T07:42:08.778Z,59.92
2019-05-26T07:45:10.026Z,59.26
2019-05-26T07:48:23.460Z,59.45
2019-05-26T07:51:37.067Z,60.24
2019-05-26T07:54:50.542Z,58.92
2019-05-26T07:58:04.249Z,58.60
2019-05-26T08:01:17.849Z,57.08
2019-05-26T08:04:31.625Z,57.36
2019-05-26T08:07:45.406Z,55.39
2019-05-26T08:10:58.913Z,54.74
2019-05-26T08:14:12.510Z,54.46
2019-05-26T08:17:26.585Z,54.42
2019-05-26T08:20:42.689Z,54.00
2019-05-26T08:23:56.179Z,53.94
2019-05-26T08:27:09.718Z,54.34
2019-05-26T08:30:23.336Z,53.33
2019-05-26T08:33:36.884Z,54.12
2019-05-26T08:36:50.309Z,53.12
2019-05-26T08:40:19.171Z,52.76
2019-05-26T08:43:32.673Z,53.53
2019-05-26T08:46:46.271Z,53.53
2019-05-26T08:49:59.775Z,51.95
2019-05-26T08:53:13.363Z,52.08
2019-05-26T08:56:26.973Z,53.20
2019-05-26T08:59:40.802Z,52.13
2019-05-26T09:02:54.417Z,52.67
2019-05-26T09:06:08.171Z,51.50
2019-05-26T09:09:21.789Z,52.81
2019-05-26T09:12:35.303Z,52.78
2019-05-26T09:15:48.799Z,50.63
2019-05-26T09:19:02.541Z,51.85
2019-05-26T09:22:16.029Z,50.45
2019-05-26T09:25:29.532Z,50.78
2019-05-26T09:28:43.178Z,49.98
2019-05-26T09:31:56.702Z,48.24
2019-05-26T09:35:10.547Z,50.95
2019-05-26T09:38:24.238Z,50.17
2019-05-26T09:41:37.769Z,50.76
2019-05-26T09:44:51.238Z,48.93
2019-05-26T09:48:04.733Z,49.13
2019-05-26T09:51:18.354Z,48.21
2019-05-26T09:54:31.877Z,46.97
2019-05-26T09:57:45.373Z,48.29
2019-05-26T10:00:58.985Z,46.02
2019-05-26T10:04:12.718Z,47.13
2019-05-26T10:07:26.653Z,48.26
2019-05-26T10:10:40.274Z,48.35
2019-05-26T10:13:53.795Z,48.87
2019-05-26T10:17:07.407Z,47.73
2019-05-26T10:20:21.125Z,45.84
2019-05-26T10:23:34.894Z,46.75
2019-05-26T10:26:48.557Z,44.97
2019-05-26T10:30:05.456Z,46.34
2019-05-26T10:33:19.202Z,46.53
2019-05-26T10:36:32.850Z,44.66
2019-05-26T10:39:46.385Z,42.85
2019-05-26T10:43:00.231Z,44.50
2019-05-26T10:46:14.026Z,43.45
2019-05-26T10:49:27.667Z,43.26
2019-05-26T10:52:41.297Z,44.20
2019-05-26T10:55:54.831Z,43.44
2019-05-26T10:59:08.748Z,42.77
2019-05-26T11:02:22.394Z,42.17
2019-05-26T11:05:35.902Z,44.73
2019-05-26T11:08:49.438Z,41.97
2019-05-26T11:12:03.366Z,42.24
2019-05-26T11:15:17.645Z,42.15
2019-05-26T11:18:31.184Z,40.16
2019-05-26T11:21:44.721Z,41.59
2019-05-26T11:24:58.370Z,40.98
2019-05-26T11:28:12.277Z,40.68
2019-05-26T11:31:25.829Z,38.50
2019-05-26T11:34:39.350Z,37.63
2019-05-26T11:37:53.019Z,39.10
2019-05-26T11:41:06.677Z,38.93
2019-05-26T11:44:20.323Z,38.23
2019-05-26T11:47:34.053Z,37.67
2019-05-26T11:50:47.728Z,37.76
2019-05-26T11:54:01.268Z,38.06
2019-05-26T11:57:15.266Z,36.83
2019-05-26T12:00:29.857Z,38.87
2019-05-26T12:03:43.689Z,38.65
2019-05-26T12:06:57.243Z,37.25
2019-05-26T12:10:14.198Z,37.85
2019-05-26T12:16:39.206Z,37.66
2019-05-26T12:19:52.799Z,36.48
2019-05-26T12:23:06.430Z,36.32
2019-05-26T12:26:20.018Z,34.89
2019-05-26T12:29:33.573Z,33.93
2019-05-26T12:32:47.135Z,35.14
2019-05-26T12:36:01.057Z,36.43
2019-05-26T12:39:14.867Z,37.92
2019-05-26T12:42:28.395Z,34.29
2019-05-26T12:45:41.865Z,34.10
2019-05-26T12:48:55.357Z,34.88
2019-05-26T12:52:09.190Z,34.23
2019-05-26T12:55:23.439Z,37.28
2019-05-26T12:58:37.381Z,36.00
2019-05-26T13:01:51.028Z,36.71
2019-05-26T13:05:05.253Z,36.87
2019-05-26T13:08:18.761Z,34.59
2019-05-26T13:11:32.579Z,36.21
2019-05-26T13:14:46.375Z,37.03
2019-05-26T13:17:59.877Z,36.56
2019-05-26T13:21:13.370Z,35.27
2019-05-26T13:24:26.926Z,36.22
2019-05-26T13:27:40.655Z,34.30
2019-05-26T13:30:54.295Z,32.41
2019-05-26T13:34:08.617Z,33.26
2019-05-26T13:37:22.580Z,34.04
2019-05-26T13:40:36.330Z,33.34
2019-05-26T13:43:49.885Z,32.84
2019-05-26T13:47:03.504Z,31.37
2019-05-26T13:50:18.225Z,31.83
2019-05-26T13:53:31.909Z,30.74
2019-05-26T13:56:45.480Z,31.62
2019-05-26T13:59:59.184Z,31.68
2019-05-26T14:03:13.562Z,32.85
2019-05-26T14:06:27.397Z,33.37
2019-05-26T14:09:41.427Z,32.74
2019-05-26T14:12:54.955Z,32.93
2019-05-26T14:16:09.460Z,34.00
2019-05-26T14:19:28.629Z,33.20
2019-05-26T14:22:42.527Z,34.63
2019-05-26T14:25:56.045Z,33.29
2019-05-26T14:29:09.576Z,33.56
2019-05-26T14:32:23.196Z,34.17
2019-05-26T14:35:37.214Z,33.57
2019-05-26T14:38:51.110Z,33.49
2019-05-26T14:42:04.869Z,33.41
2019-05-26T14:45:19.200Z,34.17
2019-05-26T14:48:32.804Z,35.71
2019-05-26T14:51:46.349Z,35.74
2019-05-26T14:55:00.416Z,35.92
2019-05-26T14:58:16.425Z,34.15
2019-05-26T15:01:29.854Z,33.61
2019-05-26T15:04:43.391Z,33.64
2019-05-26T15:07:57.018Z,32.54
2019-05-26T15:11:10.549Z,34.38
2019-05-26T15:14:24.241Z,34.16
2019-05-26T15:17:37.889Z,33.88
2019-05-26T15:20:51.642Z,34.82
2019-05-26T15:24:05.354Z,36.25
2019-05-26T15:27:19.130Z,34.43
2019-05-26T15:30:32.755Z,35.78
2019-05-26T15:33:46.247Z,35.60
2019-05-26T15:36:59.742Z,35.52
2019-05-26T15:40:14.392Z,35.00
2019-05-26T15:43:29.332Z,33.14
2019-05-26T15:46:42.838Z,32.35
2019-05-26T15:49:56.359Z,32.68
2019-05-26T15:53:10.095Z,34.99
2019-05-26T15:56:23.687Z,36.99
2019-05-26T15:59:37.376Z,37.17
2019-05-26T16:02:50.987Z,36.53
2019-05-26T16:06:05.389Z,34.37
2019-05-26T16:09:18.918Z,32.37
2019-05-26T16:12:32.539Z,32.67
2019-05-26T16:15:46.185Z,30.00
2019-05-26T16:18:59.698Z,29.32
2019-05-26T16:22:13.461Z,28.13
2019-05-26T16:25:27.078Z,26.16
2019-05-26T16:28:40.759Z,25.82
2019-05-26T16:31:54.436Z,28.64
2019-05-26T16:35:08.613Z,30.16
2019-05-26T16:38:22.254Z,29.27
2019-05-26T16:41:35.926Z,27.37
2019-05-26T16:44:49.520Z,25.99
2019-05-26T16:48:03.240Z,25.43
2019-05-26T16:51:17.504Z,24.25
2019-05-26T16:54:31.131Z,24.44
2019-05-26T16:57:44.870Z,25.54
2019-05-26T17:00:58.511Z,23.93
2019-05-26T17:04:12.147Z,22.65
2019-05-26T17:07:26.408Z,22.25
2019-05-26T17:10:40.390Z,24.10
2019-05-26T17:13:54.066Z,24.03
2019-05-26T17:17:14.587Z,26.39
2019-05-26T17:20:23.389Z,26.43
2019-05-26T17:23:36.937Z,24.95
2019-05-26T17:26:50.584Z,24.73
2019-05-26T17:30:05.335Z,23.31
2019-05-26T17:33:19.039Z,24.73
2019-05-26T17:36:32.820Z,26.22
2019-05-26T17:39:46.740Z,27.89
2019-05-26T17:43:00.379Z,30.75
2019-05-26T17:46:15.293Z,30.34
2019-05-26T17:49:28.960Z,31.04
2019-05-26T17:52:42.502Z,32.61
2019-05-26T17:55:56.360Z,33.02
2019-05-26T17:59:09.959Z,33.80
2019-05-26T18:02:23.901Z,34.15
2019-05-26T18:05:37.386Z,33.92
2019-05-26T18:08:50.974Z,31.85
2019-05-26T18:12:04.760Z,31.53
2019-05-26T18:15:18.489Z,32.75
2019-05-26T18:18:32.093Z,34.17
2019-05-26T18:21:45.597Z,36.81
2019-05-26T18:24:59.628Z,38.73
2019-05-26T18:28:13.235Z,39.45
2019-05-26T18:31:29.081Z,41.38
2019-05-26T18:34:42.493Z,43.14
2019-05-26T18:37:56.337Z,45.17
2019-05-26T18:41:09.849Z,46.66
2019-05-26T18:44:23.526Z,47.69
2019-05-26T18:47:37.054Z,48.97
2019-05-26T18:50:50.683Z,50.72
2019-05-26T18:54:04.457Z,51.82
2019-05-26T18:57:18.368Z,52.09
2019-05-26T19:00:32.504Z,53.58
2019-05-26T19:03:45.984Z,53.92
2019-05-26T19:06:59.481Z,55.43
2019-05-26T19:14:04.950Z,56.40
2019-05-26T19:17:18.856Z,57.31
2019-05-26T19:20:32.383Z,57.58
2019-05-26T19:23:46.021Z,59.39
2019-05-26T19:26:59.478Z,59.48
2019-05-26T19:30:13.720Z,59.92
2019-05-26T19:33:27.336Z,61.70
2019-05-26T19:36:40.853Z,62.30
2019-05-26T19:39:54.790Z,63.68
2019-05-26T19:43:08.291Z,64.73
2019-05-26T19:46:21.908Z,65.27
2019-05-26T19:49:35.872Z,65.77
2019-05-26T19:52:50.137Z,65.83
2019-05-26T19:56:04.301Z,65.87
2019-05-26T19:59:18.349Z,66.69
2019-05-26T20:02:31.836Z,67.15
2019-05-26T20:05:45.340Z,67.50
2019-05-26T20:08:58.924Z,67.73
2019-05-26T20:12:12.566Z,68.42
2019-05-26T20:15:26.381Z,68.50
2019-05-26T20:18:39.972Z,68.51
2019-05-26T20:21:53.986Z,69.03
2019-05-26T20:25:08.226Z,68.97
2019-05-26T20:28:21.706Z,69.54
2019-05-26T20:31:35.210Z,70.04
2019-05-26T20:34:48.829Z,71.24
2019-05-26T20:38:02.532Z,70.89
2019-05-26T20:41:16.061Z,71.24
2019-05-26T20:44:29.560Z,71.74
2019-05-26T20:47:43.132Z,72.03
2019-05-26T20:50:56.966Z,71.77
2019-05-26T20:54:10.483Z,71.94
2019-05-26T20:57:24.077Z,73.08
2019-05-26T21:00:37.569Z,72.01
2019-05-26T21:03:51.061Z,72.32
2019-05-26T21:07:05.078Z,72.52
2019-05-26T21:10:18.731Z,73.13
2019-05-26T21:16:40.049Z,72.14
2019-05-26T21:19:53.652Z,73.05
2019-05-26T21:23:07.144Z,74.06
2019-05-26T21:26:20.645Z,74.27
2019-05-26T21:29:34.262Z,74.32
2019-05-26T21:32:47.834Z,74.04
2019-05-26T21:36:01.433Z,74.69
2019-05-26T21:39:14.905Z,74.94
2019-05-26T21:42:28.403Z,74.56
2019-05-26T21:45:41.902Z,74.55
2019-05-26T21:48:55.402Z,74.83
2019-05-26T21:52:09.189Z,75.04
2019-05-26T21:55:22.688Z,75.37
2019-05-26T21:58:36.269Z,75.14
2019-05-26T22:01:50.124Z,74.92
2019-05-26T22:05:04.928Z,75.01
2019-05-26T22:08:18.659Z,74.89
2019-05-26T22:11:32.174Z,75.49
2019-05-26T22:14:45.792Z,75.24
2019-05-26T22:17:59.602Z,75.34
2019-05-26T22:21:13.303Z,75.44
2019-05-26T22:24:27.070Z,75.28
2019-05-26T22:27:40.576Z,75.47
2019-05-26T22:30:54.060Z,75.76
2019-05-26T22:34:08.018Z,75.11
2019-05-26T22:37:21.501Z,75.44
2019-05-26T22:40:35.003Z,76.39
2019-05-26T22:43:48.500Z,76.45
2019-05-26T22:47:02.269Z,76.56
2019-05-26T22:50:16.053Z,77.14
2019-05-26T22:53:29.577Z,77.61
2019-05-26T22:56:43.053Z,76.98
2019-05-26T22:59:56.553Z,77.15
2019-05-26T23:03:10.147Z,77.36
2019-05-26T23:06:23.737Z,77.95
2019-05-26T23:09:37.238Z,77.92
2019-05-26T23:12:51.078Z,78.58
2019-05-26T23:16:04.676Z,78.64
2019-05-26T23:19:19.932Z,78.43
2019-05-26T23:22:33.919Z,78.43
2019-05-26T23:25:47.794Z,78.35
2019-05-26T23:29:01.294Z,78.60
2019-05-26T23:32:15.124Z,79.92
2019-05-26T23:35:28.641Z,80.37
2019-05-26T23:38:42.556Z,80.78
2019-05-26T23:41:56.052Z,81.02
2019-05-26T23:45:11.417Z,80.65
2019-05-26T23:48:24.999Z,80.58
2019-05-26T23:51:38.592Z,81.35
2019-05-26T23:54:52.073Z,81.02
2019-05-26T23:58:05.674Z,80.98
